createdAt,value
2022-09-03T00:00:15.685Z,0.70
2022-09-03T00:00:54.336Z,1.23
2022-09-03T00:01:36.661Z,1.00
2022-09-03T00:02:21.500Z,1.15
2022-09-03T00:03:04.584Z,1.25
2022-09-03T00:03:43.483Z,0.73
2022-09-03T00:04:25.751Z,0.93
2022-09-03T00:05:19.025Z,0.88
2022-09-03T00:06:12.900Z,1.70
2022-09-03T00:06:52.201Z,0.77
2022-09-03T00:07:49.133Z,1.02
2022-09-03T00:08:31.414Z,1.83
2022-09-03T00:09:09.264Z,0.65
2022-09-03T00:09:50.541Z,3.08
2022-09-03T00:10:40.025Z,1.58
2022-09-03T00:11:19.599Z,1.08
2022-09-03T00:12:01.908Z,1.10
2022-09-03T00:12:39.507Z,1.95
2022-09-03T00:13:17.721Z,0.85
2022-09-03T00:14:03.200Z,1.73
2022-09-03T00:14:41.244Z,1.50
2022-09-03T00:15:18.750Z,0.90
2022-09-03T00:15:54.353Z,1.50
2022-09-03T00:16:30.978Z,2.65
2022-09-03T00:17:08.982Z,0.68
2022-09-03T00:17:44.460Z,2.35
2022-09-03T00:18:20.943Z,1.27
2022-09-03T00:18:58.984Z,1.08
2022-09-03T00:19:37.541Z,0.95
2022-09-03T00:20:24.687Z,1.38
2022-09-03T00:21:08.731Z,0.63
2022-09-03T00:21:46.797Z,2.08
2022-09-03T00:22:24.674Z,0.98
2022-09-03T00:23:06.897Z,0.88
2022-09-03T00:23:42.003Z,1.67
2022-09-03T00:24:17.815Z,2.05
2022-09-03T00:24:50.342Z,0.93
2022-09-03T00:25:33.872Z,2.42
2022-09-03T00:26:12.373Z,0.85
2022-09-03T00:26:55.066Z,1.50
2022-09-03T00:27:29.358Z,0.70
2022-09-03T00:28:04.671Z,1.10
2022-09-03T00:28:47.734Z,0.82
2022-09-03T00:29:28.206Z,1.73
2022-09-03T00:30:04.672Z,1.52
2022-09-03T00:30:37.121Z,0.80
2022-09-03T00:31:22.040Z,3.53
2022-09-03T00:31:58.504Z,2.35
2022-09-03T00:32:49.755Z,1.38
2022-09-03T00:33:27.022Z,1.10
2022-09-03T00:34:05.179Z,1.15
2022-09-03T00:34:42.237Z,1.13
2022-09-03T00:35:31.450Z,4.90
2022-09-03T00:36:11.093Z,3.22
2022-09-03T00:36:45.869Z,1.27
2022-09-03T00:37:17.700Z,1.40
2022-09-03T00:37:55.284Z,1.30
2022-09-03T00:38:29.522Z,0.70
2022-09-03T00:39:01.362Z,0.88
2022-09-03T00:39:33.224Z,1.10
2022-09-03T00:40:11.158Z,1.52
2022-09-03T00:40:54.867Z,3.08
2022-09-03T00:41:51.868Z,0.88
2022-09-03T00:42:43.734Z,1.88
2022-09-03T00:43:53.472Z,0.95
2022-09-03T00:45:10.731Z,2.70
2022-09-03T00:45:57.514Z,1.23
2022-09-03T00:46:32.486Z,1.35
2022-09-03T00:47:51.089Z,0.98
2022-09-03T00:48:30.791Z,1.55
2022-09-03T00:49:36.591Z,1.83
2022-09-03T00:50:35.038Z,0.95
2022-09-03T00:51:43.297Z,2.15
2022-09-03T00:53:07.819Z,1.05
2022-09-03T00:54:17.282Z,1.33
2022-09-03T00:55:10.846Z,2.88
2022-09-03T00:56:27.499Z,1.05
2022-09-03T00:57:14.333Z,1.13
2022-09-03T00:57:54.758Z,1.48
2022-09-03T00:58:51.937Z,1.48
2022-09-03T00:59:33.484Z,0.60
2022-09-03T01:00:13.943Z,1.08
2022-09-03T01:00:45.977Z,1.67
2022-09-03T01:01:46.109Z,6.82
2022-09-03T01:02:34.027Z,1.35
2022-09-03T01:03:18.137Z,1.30
2022-09-03T01:03:51.272Z,2.55
2022-09-03T01:04:34.531Z,2.05
2022-09-03T01:05:22.376Z,1.35
2022-09-03T01:06:22.769Z,1.00
2022-09-03T01:07:31.257Z,3.00
2022-09-03T01:08:36.899Z,1.17
2022-09-03T01:09:42.217Z,1.42
2022-09-03T01:10:26.870Z,2.45
2022-09-03T01:11:19.953Z,1.85
2022-09-03T01:12:14.814Z,3.70
2022-09-03T01:13:13.495Z,1.23
2022-09-03T01:14:10.026Z,1.00
2022-09-03T01:14:58.982Z,0.88
2022-09-03T01:15:41.409Z,1.15
2022-09-03T01:16:32.590Z,1.33
2022-09-03T01:17:26.046Z,1.80
2022-09-03T01:18:12.456Z,2.70
2022-09-03T01:19:03.050Z,1.98
2022-09-03T01:20:04.076Z,1.92
2022-09-03T01:20:49.281Z,1.70
2022-09-03T01:21:52.149Z,1.05
2022-09-03T01:22:29.551Z,1.08
2022-09-03T01:23:20.523Z,1.63
2022-09-03T01:24:58.753Z,1.05
2022-09-03T01:25:47.161Z,1.00
2022-09-03T01:26:36.038Z,1.30
2022-09-03T01:27:38.747Z,1.55
2022-09-03T01:28:18.848Z,3.25
2022-09-03T01:29:02.396Z,1.48
2022-09-03T01:29:39.948Z,1.38
2022-09-03T01:30:18.396Z,1.38
2022-09-03T01:31:11.486Z,1.50
2022-09-03T01:31:50.002Z,1.65
2022-09-03T01:32:36.379Z,3.45
2022-09-03T01:33:17.592Z,1.25
2022-09-03T01:34:16.249Z,1.45
2022-09-03T01:35:09.156Z,2.70
2022-09-03T01:36:07.818Z,2.88
2022-09-03T01:36:58.240Z,1.25
2022-09-03T01:37:41.730Z,1.92
2022-09-03T01:38:48.021Z,1.02
2022-09-03T01:39:37.832Z,3.95
2022-09-03T01:40:31.217Z,1.40
2022-09-03T01:41:59.984Z,1.20
2022-09-03T01:43:00.106Z,1.70
2022-09-03T01:43:54.363Z,3.75
2022-09-03T01:44:44.730Z,1.17
2022-09-03T01:45:51.167Z,2.47
2022-09-03T01:46:37.276Z,1.30
2022-09-03T01:47:20.805Z,1.10
2022-09-03T01:48:11.939Z,2.30
2022-09-03T01:49:02.970Z,1.33
2022-09-03T01:49:44.303Z,1.17
2022-09-03T01:50:29.379Z,2.22
2022-09-03T01:51:11.012Z,1.40
2022-09-03T01:51:44.006Z,1.42
2022-09-03T01:52:44.941Z,3.00
2022-09-03T01:53:28.149Z,1.73
2022-09-03T01:54:21.291Z,1.98
2022-09-03T01:55:02.462Z,1.52
2022-09-03T01:55:47.094Z,2.35
2022-09-03T01:56:43.571Z,1.60
2022-09-03T01:57:38.315Z,1.60
2022-09-03T01:58:21.616Z,1.08
2022-09-03T01:59:03.763Z,1.42
2022-09-03T01:59:58.992Z,3.72
2022-09-03T02:00:33.844Z,1.02
2022-09-03T02:01:14.058Z,1.58
2022-09-03T02:02:02.564Z,2.05
2022-09-03T02:02:35.984Z,1.00
2022-09-03T02:03:09.991Z,1.60
2022-09-03T02:03:44.989Z,1.17
2022-09-03T02:04:23.544Z,1.38
2022-09-03T02:05:10.296Z,1.40
2022-09-03T02:05:44.074Z,2.75
2022-09-03T02:06:15.926Z,1.15
2022-09-03T02:06:48.950Z,2.15
2022-09-03T02:07:22.387Z,0.88
2022-09-03T02:08:09.447Z,0.77
2022-09-03T02:08:43.495Z,2.22
2022-09-03T02:09:16.453Z,1.58
2022-09-03T02:09:48.733Z,1.08
2022-09-03T02:10:24.890Z,1.17
2022-09-03T02:11:02.177Z,0.80
2022-09-03T02:11:34.330Z,1.02
2022-09-03T02:14:23.481Z,2.58
2022-09-03T02:14:55.951Z,2.20
2022-09-03T02:15:28.643Z,1.17
2022-09-03T02:16:09.989Z,1.27
2022-09-03T02:16:43.415Z,1.20
2022-09-03T02:17:15.274Z,1.27
2022-09-03T02:17:50.091Z,1.52
2022-09-03T02:18:31.382Z,1.17
2022-09-03T02:19:10.895Z,2.22
2022-09-03T02:19:42.778Z,1.17
2022-09-03T02:20:20.574Z,1.30
2022-09-03T02:20:54.297Z,1.50
2022-09-03T02:21:32.298Z,3.85
2022-09-03T02:22:04.854Z,1.52
2022-09-03T02:22:36.682Z,1.25
2022-09-03T02:23:08.585Z,1.40
2022-09-03T02:23:41.973Z,1.25
2022-09-03T02:24:14.028Z,2.13
2022-09-03T02:24:45.876Z,1.23
2022-09-03T02:25:17.900Z,1.15
2022-09-03T02:25:55.283Z,1.33
2022-09-03T02:26:27.202Z,2.80
2022-09-03T02:26:59.057Z,2.72
2022-09-03T02:27:31.533Z,2.45
2022-09-03T02:28:05.633Z,1.15
2022-09-03T02:28:43.136Z,2.70
2022-09-03T02:29:17.533Z,1.15
2022-09-03T02:29:49.396Z,1.40
2022-09-03T02:30:21.310Z,1.73
2022-09-03T02:30:53.528Z,1.23
2022-09-03T02:31:25.438Z,2.28
2022-09-03T02:31:58.151Z,1.10
2022-09-03T02:32:30.836Z,2.75
2022-09-03T02:33:03.361Z,1.38
2022-09-03T02:33:40.558Z,1.50
2022-09-03T02:34:12.654Z,1.63
2022-09-03T02:34:44.533Z,1.48
2022-09-03T02:35:16.424Z,1.05
2022-09-03T02:35:48.814Z,1.30
2022-09-03T02:36:27.765Z,1.10
2022-09-03T02:37:01.245Z,2.40
2022-09-03T02:37:33.193Z,1.35
2022-09-03T02:38:20.772Z,1.17
2022-09-03T02:38:52.736Z,2.40
2022-09-03T02:39:24.562Z,1.70
2022-09-03T02:39:56.641Z,3.78
2022-09-03T02:40:28.531Z,1.15
2022-09-03T02:41:00.586Z,1.45
2022-09-03T02:41:35.920Z,1.85
2022-09-03T02:42:10.459Z,2.20
2022-09-03T02:42:42.667Z,1.33
2022-09-03T02:43:35.242Z,1.45
2022-09-03T02:44:28.221Z,1.50
2022-09-03T02:45:28.604Z,1.33
2022-09-03T02:46:03.721Z,1.13
2022-09-03T02:46:47.870Z,1.08
2022-09-03T02:47:20.834Z,2.65
2022-09-03T02:47:55.913Z,1.10
2022-09-03T02:48:27.893Z,1.02
2022-09-03T02:48:59.811Z,2.22
2022-09-03T02:49:32.809Z,1.00
2022-09-03T02:50:04.961Z,0.93
2022-09-03T02:50:43.420Z,2.00
2022-09-03T02:51:15.383Z,3.08
2022-09-03T02:51:47.174Z,2.38
2022-09-03T02:52:18.997Z,1.35
2022-09-03T02:52:51.336Z,1.75
2022-09-03T02:53:23.139Z,2.17
2022-09-03T02:53:54.944Z,1.98
2022-09-03T02:54:27.098Z,2.03
2022-09-03T02:54:58.906Z,1.55
2022-09-03T02:55:30.685Z,2.10
2022-09-03T02:56:02.961Z,2.00
2022-09-03T02:56:34.903Z,1.30
2022-09-03T02:57:09.173Z,1.33
2022-09-03T02:57:41.173Z,1.63
2022-09-03T02:58:13.443Z,1.95
2022-09-03T02:58:45.268Z,1.90
2022-09-03T02:59:18.057Z,1.50
2022-09-03T02:59:49.951Z,1.17
2022-09-03T03:00:21.830Z,1.38
2022-09-03T03:00:54.297Z,1.30
2022-09-03T03:01:27.415Z,2.63
2022-09-03T03:02:01.161Z,1.35
2022-09-03T03:02:33.362Z,1.98
2022-09-03T03:03:06.413Z,1.40
2022-09-03T03:03:38.400Z,1.58
2022-09-03T03:04:10.267Z,1.35
2022-09-03T03:04:42.149Z,3.13
2022-09-03T03:05:23.727Z,1.10
2022-09-03T03:05:58.707Z,2.28
2022-09-03T03:06:30.507Z,1.17
2022-09-03T03:07:02.343Z,1.25
2022-09-03T03:07:38.001Z,3.30
2022-09-03T03:08:09.986Z,1.27
2022-09-03T03:08:44.383Z,3.05
2022-09-03T03:09:17.182Z,6.43
2022-09-03T03:09:48.991Z,2.55
2022-09-03T03:10:20.783Z,2.28
2022-09-03T03:10:54.148Z,2.85
2022-09-03T03:11:27.272Z,1.83
2022-09-03T03:12:00.706Z,2.78
2022-09-03T03:12:32.675Z,1.58
2022-09-03T03:13:04.561Z,4.07
2022-09-03T03:13:36.356Z,1.50
2022-09-03T03:14:08.167Z,1.70
2022-09-03T03:14:39.927Z,1.13
2022-09-03T03:15:11.752Z,1.40
2022-09-03T03:15:44.453Z,1.80
2022-09-03T03:16:17.168Z,1.52
2022-09-03T03:16:50.132Z,1.50
2022-09-03T03:17:22.059Z,2.08
2022-09-03T03:17:57.339Z,2.58
2022-09-03T03:18:30.173Z,1.85
2022-09-03T03:19:02.091Z,1.85
2022-09-03T03:19:33.930Z,1.67
2022-09-03T03:20:06.102Z,1.73
2022-09-03T03:20:38.940Z,6.25
2022-09-03T03:21:13.951Z,1.85
2022-09-03T03:21:45.911Z,1.63
2022-09-03T03:22:17.824Z,1.20
2022-09-03T03:22:49.753Z,1.58
2022-09-03T03:23:22.102Z,2.10
2022-09-03T03:23:53.975Z,1.83
2022-09-03T03:24:25.998Z,1.90
2022-09-03T03:24:57.956Z,1.20
2022-09-03T03:25:32.417Z,3.85
2022-09-03T03:26:06.624Z,2.13
2022-09-03T03:26:38.452Z,1.27
2022-09-03T03:27:11.316Z,2.88
2022-09-03T03:27:43.324Z,2.40
2022-09-03T03:28:15.331Z,1.77
2022-09-03T03:28:48.875Z,3.47
2022-09-03T03:29:21.400Z,1.73
2022-09-03T03:29:53.207Z,2.80
2022-09-03T03:30:25.750Z,2.03
2022-09-03T03:30:57.743Z,2.10
2022-09-03T03:31:29.629Z,1.70
2022-09-03T03:32:01.718Z,1.27
2022-09-03T03:32:33.555Z,1.60
2022-09-03T03:33:05.887Z,2.10
2022-09-03T03:33:38.739Z,1.75
2022-09-03T03:34:10.645Z,1.25
2022-09-03T03:34:42.451Z,3.80
2022-09-03T03:35:14.461Z,1.83
2022-09-03T03:35:46.664Z,3.35
2022-09-03T03:36:18.933Z,1.85
2022-09-03T03:36:50.778Z,1.33
2022-09-03T03:37:22.548Z,1.65
2022-09-03T03:37:54.547Z,2.60
2022-09-03T03:38:26.323Z,2.75
2022-09-03T03:38:59.362Z,1.38
2022-09-03T03:39:31.261Z,1.23
2022-09-03T03:40:03.754Z,1.42
2022-09-03T03:40:38.554Z,1.50
2022-09-03T03:41:17.063Z,1.08
2022-09-03T03:41:48.798Z,1.85
2022-09-03T03:42:20.550Z,1.65
2022-09-03T03:42:53.524Z,2.67
2022-09-03T03:43:25.253Z,1.52
2022-09-03T03:43:59.303Z,2.05
2022-09-03T03:44:31.284Z,1.45
2022-09-03T03:45:03.614Z,1.67
2022-09-03T03:45:35.468Z,1.42
2022-09-03T03:46:07.708Z,2.15
2022-09-03T03:46:41.673Z,1.45
2022-09-03T03:47:13.486Z,1.27
2022-09-03T03:47:45.515Z,1.33
2022-09-03T03:48:17.261Z,1.75
2022-09-03T03:48:50.270Z,1.30
2022-09-03T03:49:22.053Z,1.30
2022-09-03T03:49:53.768Z,1.67
2022-09-03T03:50:26.006Z,1.00
2022-09-03T03:51:01.299Z,1.48
2022-09-03T03:51:34.239Z,1.73
2022-09-03T03:52:05.959Z,2.38
2022-09-03T03:52:37.683Z,2.33
2022-09-03T03:53:09.485Z,2.95
2022-09-03T03:53:41.978Z,1.15
2022-09-03T03:54:17.491Z,2.05
2022-09-03T03:54:50.194Z,1.83
2022-09-03T03:55:22.476Z,1.30
2022-09-03T03:56:01.464Z,3.88
2022-09-03T03:56:34.123Z,4.35
2022-09-03T03:57:05.923Z,2.40
2022-09-03T03:57:37.748Z,1.27
2022-09-03T03:58:09.578Z,3.05
2022-09-03T03:58:43.040Z,1.42
2022-09-03T03:59:14.813Z,2.45
2022-09-03T03:59:47.359Z,1.13
2022-09-03T04:00:19.119Z,1.40
2022-09-03T04:00:52.158Z,1.70
2022-09-03T04:01:26.643Z,1.42
2022-09-03T04:01:58.474Z,2.65
2022-09-03T04:02:30.314Z,2.63
2022-09-03T04:03:02.073Z,1.02
2022-09-03T04:03:34.729Z,3.50
2022-09-03T04:04:06.628Z,1.70
2022-09-03T04:04:38.362Z,2.08
2022-09-03T04:05:10.126Z,1.52
2022-09-03T04:05:48.502Z,1.90
2022-09-03T04:06:21.014Z,1.05
2022-09-03T04:06:52.781Z,2.25
2022-09-03T04:07:24.543Z,1.52
2022-09-03T04:07:56.289Z,2.58
2022-09-03T04:08:29.025Z,1.58
2022-09-03T04:09:00.815Z,2.22
2022-09-03T04:09:32.854Z,2.20
2022-09-03T04:10:05.099Z,1.83
2022-09-03T04:10:37.213Z,1.92
2022-09-03T04:11:10.927Z,2.28
2022-09-03T04:11:42.975Z,1.90
2022-09-03T04:12:14.722Z,1.52
2022-09-03T04:12:46.458Z,1.40
2022-09-03T04:13:18.536Z,1.50
2022-09-03T04:13:51.487Z,1.63
2022-09-03T04:14:24.182Z,1.67
2022-09-03T04:14:55.928Z,1.77
2022-09-03T04:15:27.940Z,1.98
2022-09-03T04:16:12.118Z,2.95
2022-09-03T04:16:46.852Z,1.48
2022-09-03T04:17:21.049Z,1.58
2022-09-03T04:17:56.359Z,1.83
2022-09-03T04:18:28.069Z,1.60
2022-09-03T04:19:00.048Z,3.42
2022-09-03T04:19:31.825Z,1.20
2022-09-03T04:20:04.546Z,1.92
2022-09-03T04:20:36.724Z,2.10
2022-09-03T04:21:11.474Z,1.90
2022-09-03T04:21:44.001Z,4.50
2022-09-03T04:22:15.896Z,1.35
2022-09-03T04:22:51.823Z,2.08
2022-09-03T04:23:23.705Z,1.52
2022-09-03T04:23:56.373Z,1.48
2022-09-03T04:24:28.635Z,1.40
2022-09-03T04:25:00.403Z,2.33
2022-09-03T04:25:32.524Z,1.65
2022-09-03T04:26:05.484Z,1.52
2022-09-03T04:26:38.050Z,2.50
2022-09-03T04:27:09.815Z,1.42
2022-09-03T04:27:41.531Z,3.70
2022-09-03T04:28:13.990Z,1.63
2022-09-03T04:28:45.992Z,1.30
2022-09-03T04:29:18.714Z,1.45
2022-09-03T04:29:50.403Z,1.52
2022-09-03T04:30:22.113Z,1.48
2022-09-03T04:30:54.929Z,2.63
2022-09-03T04:31:26.981Z,1.80
2022-09-03T04:32:17.898Z,1.45
2022-09-03T04:32:53.500Z,2.08
2022-09-03T04:33:25.300Z,3.72
2022-09-03T04:33:57.403Z,1.65
2022-09-03T04:34:29.171Z,2.38
2022-09-03T04:35:00.881Z,1.80
2022-09-03T04:35:33.659Z,2.15
2022-09-03T04:36:10.683Z,2.40
2022-09-03T04:36:42.440Z,3.42
2022-09-03T04:37:16.407Z,2.70
2022-09-03T04:37:48.263Z,1.80
2022-09-03T04:38:20.065Z,3.58
2022-09-03T04:38:54.522Z,2.17
2022-09-03T04:39:26.555Z,3.85
2022-09-03T04:39:59.130Z,1.38
2022-09-03T04:40:30.894Z,1.40
2022-09-03T04:41:02.941Z,1.60
2022-09-03T04:41:34.670Z,1.65
2022-09-03T04:42:06.462Z,1.35
2022-09-03T04:42:38.316Z,2.80
2022-09-03T04:43:10.017Z,2.10
2022-09-03T04:43:44.668Z,1.67
2022-09-03T04:44:30.096Z,1.50
2022-09-03T04:45:01.850Z,2.20
2022-09-03T04:45:33.599Z,1.98
2022-09-03T04:46:10.819Z,1.73
2022-09-03T04:46:48.456Z,1.95
2022-09-03T04:47:20.116Z,1.45
2022-09-03T04:48:02.773Z,1.27
2022-09-03T04:48:37.824Z,1.60
2022-09-03T04:49:09.870Z,1.70
2022-09-03T04:49:41.698Z,1.50
2022-09-03T04:50:13.741Z,1.88
2022-09-03T04:50:45.447Z,1.63
2022-09-03T04:51:27.227Z,1.88
2022-09-03T04:51:58.928Z,1.52
2022-09-03T04:52:31.583Z,1.60
2022-09-03T04:53:08.000Z,2.83
2022-09-03T04:53:42.068Z,1.60
2022-09-03T04:54:13.775Z,1.60
2022-09-03T04:54:45.440Z,1.60
2022-09-03T04:55:17.130Z,1.40
2022-09-03T04:55:48.851Z,3.10
2022-09-03T04:56:23.882Z,1.33
2022-09-03T04:56:55.595Z,2.70
2022-09-03T04:57:34.278Z,1.80
2022-09-03T04:58:07.958Z,1.95
2022-09-03T04:58:40.281Z,3.83
2022-09-03T04:59:15.010Z,1.40
2022-09-03T04:59:47.283Z,1.70
2022-09-03T05:00:20.293Z,3.78
2022-09-03T05:00:52.245Z,1.67
2022-09-03T05:01:26.488Z,1.48
2022-09-03T05:01:58.992Z,1.58
2022-09-03T05:02:30.762Z,1.00
2022-09-03T05:03:04.858Z,1.42
2022-09-03T05:03:37.580Z,1.42
2022-09-03T05:04:09.295Z,1.27
2022-09-03T05:04:41.778Z,2.05
2022-09-03T05:05:13.644Z,1.45
2022-09-03T05:05:55.681Z,2.70
2022-09-03T05:06:28.908Z,3.65
2022-09-03T05:07:00.637Z,1.73
2022-09-03T05:07:38.592Z,2.45
2022-09-03T05:08:11.178Z,2.28
2022-09-03T05:08:46.375Z,2.08
2022-09-03T05:09:19.606Z,1.95
2022-09-03T05:09:51.338Z,1.15
2022-09-03T05:10:24.031Z,3.60
2022-09-03T05:11:02.865Z,1.70
2022-09-03T05:11:34.635Z,1.80
2022-09-03T05:12:06.523Z,1.60
2022-09-03T05:12:38.360Z,6.05
2022-09-03T05:13:10.111Z,1.98
2022-09-03T05:13:42.278Z,1.95
2022-09-03T05:14:13.992Z,5.20
2022-09-03T05:14:45.705Z,2.13
2022-09-03T05:15:17.394Z,2.38
2022-09-03T05:15:49.048Z,3.85
2022-09-03T05:16:22.090Z,1.95
2022-09-03T05:16:53.875Z,1.63
2022-09-03T05:17:26.756Z,1.88
2022-09-03T05:17:59.728Z,1.73
2022-09-03T05:18:31.900Z,3.05
2022-09-03T05:19:06.035Z,1.52
2022-09-03T05:19:37.880Z,1.83
2022-09-03T05:20:10.161Z,1.80
2022-09-03T05:20:41.871Z,1.27
2022-09-03T05:21:16.323Z,1.90
2022-09-03T05:21:48.061Z,3.85
2022-09-03T05:22:23.079Z,3.65
2022-09-03T05:22:54.800Z,1.50
2022-09-03T05:23:34.275Z,2.83
2022-09-03T05:24:08.976Z,1.70
2022-09-03T05:24:40.700Z,3.30
2022-09-03T05:25:12.449Z,2.22
2022-09-03T05:25:44.191Z,1.73
2022-09-03T05:26:20.426Z,2.25
2022-09-03T05:26:52.092Z,1.77
2022-09-03T05:27:23.775Z,2.47
2022-09-03T05:27:55.467Z,2.28
2022-09-03T05:28:29.678Z,3.67
2022-09-03T05:29:07.492Z,1.80
2022-09-03T05:29:39.378Z,3.00
2022-09-03T05:30:11.687Z,1.63
2022-09-03T05:30:43.771Z,2.08
2022-09-03T05:31:19.143Z,2.13
2022-09-03T05:31:50.919Z,2.17
2022-09-03T05:32:22.694Z,1.48
2022-09-03T05:32:54.398Z,2.67
2022-09-03T05:33:26.176Z,2.33
2022-09-03T05:34:01.104Z,1.60
2022-09-03T05:34:32.833Z,1.40
2022-09-03T05:35:05.030Z,1.52
2022-09-03T05:35:36.741Z,1.58
2022-09-03T05:36:11.250Z,1.80
2022-09-03T05:36:42.996Z,1.80
2022-09-03T05:37:14.742Z,3.20
2022-09-03T05:37:46.404Z,3.33
2022-09-03T05:38:18.234Z,1.70
2022-09-03T05:38:50.641Z,1.58
2022-09-03T05:39:22.410Z,1.92
2022-09-03T05:39:54.254Z,2.63
2022-09-03T05:40:26.037Z,1.65
2022-09-03T05:41:06.809Z,3.45
2022-09-03T05:41:38.573Z,1.63
2022-09-03T05:42:10.556Z,2.33
2022-09-03T05:42:42.226Z,1.50
2022-09-03T05:43:13.955Z,3.05
2022-09-03T05:43:51.866Z,2.30
2022-09-03T05:44:23.826Z,1.83
2022-09-03T05:44:55.537Z,1.85
2022-09-03T05:45:27.846Z,2.25
2022-09-03T05:46:01.336Z,2.17
2022-09-03T05:46:34.231Z,1.70
2022-09-03T05:47:06.030Z,2.60
2022-09-03T05:47:39.564Z,1.70
2022-09-03T05:48:11.238Z,2.00
2022-09-03T05:48:43.170Z,2.50
2022-09-03T05:49:14.974Z,3.42
2022-09-03T05:49:46.734Z,3.50
2022-09-03T05:50:18.469Z,2.15
2022-09-03T05:50:50.151Z,1.85
2022-09-03T05:51:21.898Z,3.47
2022-09-03T05:51:53.560Z,2.13
2022-09-03T05:52:25.260Z,1.55
2022-09-03T05:52:59.002Z,2.78
2022-09-03T05:53:33.060Z,2.33
2022-09-03T05:54:05.197Z,1.55
2022-09-03T05:54:36.883Z,2.55
2022-09-03T05:55:13.185Z,2.20
2022-09-03T05:55:55.269Z,3.53
2022-09-03T05:56:29.558Z,2.97
2022-09-03T05:57:01.816Z,1.63
2022-09-03T05:57:33.715Z,2.40
2022-09-03T05:58:05.487Z,1.88
2022-09-03T05:58:40.406Z,1.52
2022-09-03T05:59:13.733Z,4.10
2022-09-03T05:59:45.429Z,2.10
2022-09-03T06:00:19.600Z,3.00
2022-09-03T06:00:52.086Z,2.35
2022-09-03T06:01:32.489Z,2.08
2022-09-03T06:02:05.316Z,1.70
2022-09-03T06:02:37.161Z,2.17
2022-09-03T06:03:09.011Z,2.20
2022-09-03T06:03:42.334Z,2.50
2022-09-03T06:04:15.524Z,2.78
2022-09-03T06:04:47.217Z,2.28
2022-09-03T06:05:19.969Z,3.45
2022-09-03T06:05:53.358Z,4.68
2022-09-03T06:06:26.993Z,2.58
2022-09-03T06:06:58.781Z,2.38
2022-09-03T06:07:31.150Z,3.08
2022-09-03T06:08:02.915Z,2.10
2022-09-03T06:08:35.019Z,3.08
2022-09-03T06:09:09.262Z,4.55
2022-09-03T06:09:42.014Z,2.63
2022-09-03T06:10:13.715Z,5.40
2022-09-03T06:10:45.478Z,4.03
2022-09-03T06:11:17.458Z,3.15
2022-09-03T06:11:50.179Z,2.53
2022-09-03T06:12:22.146Z,2.42
2022-09-03T06:12:53.963Z,3.90
2022-09-03T06:13:25.758Z,4.15
2022-09-03T06:13:59.577Z,3.80
2022-09-03T06:14:31.914Z,3.38
2022-09-03T06:15:03.936Z,2.95
2022-09-03T06:15:35.685Z,2.67
2022-09-03T06:16:07.991Z,3.70
2022-09-03T06:16:42.517Z,2.70
2022-09-03T06:17:15.311Z,4.30
2022-09-03T06:17:47.016Z,3.78
2022-09-03T06:18:18.861Z,4.35
2022-09-03T06:18:51.221Z,4.80
2022-09-03T06:19:24.281Z,3.53
2022-09-03T06:19:56.168Z,6.22
2022-09-03T06:20:29.091Z,3.63
2022-09-03T06:21:04.254Z,3.97
2022-09-03T06:21:37.222Z,3.10
2022-09-03T06:22:09.093Z,3.75
2022-09-03T06:22:40.818Z,4.65
2022-09-03T06:23:12.536Z,3.95
2022-09-03T06:23:50.297Z,4.45
2022-09-03T06:24:28.338Z,4.55
2022-09-03T06:25:00.302Z,3.75
2022-09-03T06:25:32.321Z,3.80
2022-09-03T06:26:12.158Z,5.18
2022-09-03T06:26:44.143Z,6.53
2022-09-03T06:27:15.912Z,3.85
2022-09-03T06:27:49.382Z,4.75
2022-09-03T06:28:23.387Z,3.92
2022-09-03T06:28:59.879Z,3.17
2022-09-03T06:29:31.586Z,3.45
2022-09-03T06:30:03.963Z,5.00
2022-09-03T06:30:36.154Z,3.47
2022-09-03T06:31:09.974Z,4.95
2022-09-03T06:31:41.871Z,4.40
2022-09-03T06:32:14.365Z,4.35
2022-09-03T06:32:47.263Z,3.88
2022-09-03T06:33:19.179Z,4.28
2022-09-03T06:33:53.038Z,3.83
2022-09-03T06:34:27.113Z,6.45
2022-09-03T06:34:58.824Z,2.95
2022-09-03T06:35:30.946Z,3.78
2022-09-03T06:36:14.752Z,3.53
2022-09-03T06:36:46.578Z,4.60
2022-09-03T06:37:18.337Z,4.85
2022-09-03T06:37:52.091Z,3.65
2022-09-03T06:38:25.330Z,5.85
2022-09-03T06:38:58.324Z,5.50
2022-09-03T06:39:30.712Z,8.00
2022-09-03T06:40:03.395Z,5.03
2022-09-03T06:40:35.535Z,4.55
2022-09-03T06:41:10.358Z,4.43
2022-09-03T06:41:42.096Z,4.68
2022-09-03T06:42:14.065Z,4.72
2022-09-03T06:42:59.248Z,4.80
2022-09-03T06:43:33.325Z,4.13
2022-09-03T06:44:11.342Z,6.22
2022-09-03T06:44:44.843Z,7.75
2022-09-03T06:45:17.137Z,5.25
2022-09-03T06:46:00.724Z,5.60
2022-09-03T06:46:35.217Z,6.53
2022-09-03T06:47:06.991Z,7.45
2022-09-03T06:47:38.731Z,4.93
2022-09-03T06:48:10.488Z,6.63
2022-09-03T06:48:42.903Z,5.93
2022-09-03T06:49:17.614Z,5.95
2022-09-03T06:49:49.308Z,5.18
2022-09-03T06:50:21.724Z,7.22
2022-09-03T06:51:07.734Z,6.68
2022-09-03T06:51:40.570Z,8.02
2022-09-03T06:52:12.314Z,4.13
2022-09-03T06:52:44.102Z,4.45
2022-09-03T06:53:16.658Z,5.00
2022-09-03T06:53:51.199Z,5.55
2022-09-03T06:54:25.173Z,3.97
2022-09-03T06:54:56.979Z,4.15
2022-09-03T06:55:28.735Z,6.82
2022-09-03T06:56:02.979Z,5.43
2022-09-03T06:56:40.157Z,6.30
2022-09-03T06:57:12.455Z,7.90
2022-09-03T06:57:44.382Z,8.38
2022-09-03T06:58:16.955Z,7.78
2022-09-03T06:58:49.579Z,4.65
2022-09-03T06:59:21.387Z,4.97
2022-09-03T06:59:54.630Z,7.05
2022-09-03T07:00:26.392Z,5.57
2022-09-03T07:01:03.134Z,7.45
2022-09-03T07:01:35.731Z,5.63
2022-09-03T07:02:08.391Z,6.78
2022-09-03T07:02:44.815Z,6.32
2022-09-03T07:03:17.720Z,5.00
2022-09-03T07:03:57.711Z,5.18
2022-09-03T07:04:29.458Z,5.93
2022-09-03T07:05:01.552Z,5.70
2022-09-03T07:05:33.296Z,6.30
2022-09-03T07:06:07.692Z,4.95
2022-09-03T07:06:40.881Z,5.53
2022-09-03T07:07:13.987Z,5.97
2022-09-03T07:07:46.282Z,6.85
2022-09-03T07:08:18.040Z,5.97
2022-09-03T07:08:49.811Z,5.20
2022-09-03T07:09:21.751Z,6.28
2022-09-03T07:09:53.481Z,6.15
2022-09-03T07:10:26.119Z,4.28
2022-09-03T07:10:57.927Z,4.80
2022-09-03T07:11:33.369Z,5.82
2022-09-03T07:12:05.308Z,4.70
2022-09-03T07:12:37.714Z,5.15
2022-09-03T07:13:09.582Z,4.75
2022-09-03T07:13:43.299Z,5.70
2022-09-03T07:14:17.036Z,5.63
2022-09-03T07:14:48.800Z,6.32
2022-09-03T07:15:23.013Z,4.70
2022-09-03T07:16:06.679Z,5.43
2022-09-03T07:16:38.698Z,7.00
2022-09-03T07:17:10.427Z,4.30
2022-09-03T07:17:42.270Z,4.22
2022-09-03T07:18:14.038Z,6.10
2022-09-03T07:18:46.809Z,5.80
2022-09-03T07:19:18.821Z,5.22
2022-09-03T07:19:50.540Z,4.28
2022-09-03T07:20:22.393Z,8.13
2022-09-03T07:21:01.801Z,4.07
2022-09-03T07:21:36.795Z,8.07
2022-09-03T07:22:09.629Z,4.03
2022-09-03T07:22:41.354Z,4.22
2022-09-03T07:23:16.177Z,4.53
2022-09-03T07:23:49.658Z,5.70
2022-09-03T07:24:22.216Z,4.38
2022-09-03T07:24:54.270Z,5.22
2022-09-03T07:25:28.742Z,5.82
2022-09-03T07:26:04.069Z,3.22
2022-09-03T07:26:38.502Z,5.40
2022-09-03T07:27:14.432Z,5.68
2022-09-03T07:27:47.330Z,4.03
2022-09-03T07:28:19.071Z,3.50
2022-09-03T07:28:51.832Z,5.40
2022-09-03T07:29:23.770Z,4.00
2022-09-03T07:29:55.538Z,3.90
2022-09-03T07:30:27.254Z,3.90
2022-09-03T07:31:05.991Z,4.72
2022-09-03T07:31:40.536Z,3.88
2022-09-03T07:32:12.338Z,4.65
2022-09-03T07:32:44.099Z,3.47
2022-09-03T07:33:15.993Z,3.85
2022-09-03T07:33:47.759Z,3.97
2022-09-03T07:34:20.379Z,3.55
2022-09-03T07:34:53.860Z,4.45
2022-09-03T07:35:25.781Z,4.25
2022-09-03T07:36:03.665Z,5.82
2022-09-03T07:36:42.065Z,3.75
2022-09-03T07:37:13.804Z,3.35
2022-09-03T07:37:45.686Z,3.70
2022-09-03T07:38:19.968Z,3.40
2022-09-03T07:38:55.275Z,6.53
2022-09-03T07:39:27.010Z,4.72
2022-09-03T07:39:58.994Z,5.05
2022-09-03T07:40:32.232Z,4.72
2022-09-03T07:41:06.921Z,3.80
2022-09-03T07:41:39.416Z,3.58
2022-09-03T07:42:11.201Z,3.17
2022-09-03T07:42:42.945Z,3.70
2022-09-03T07:43:14.713Z,4.53
2022-09-03T07:43:47.408Z,3.92
2022-09-03T07:44:20.014Z,3.95
2022-09-03T07:44:51.900Z,3.42
2022-09-03T07:45:24.031Z,3.58
2022-09-03T07:45:57.131Z,4.85
2022-09-03T07:46:29.073Z,4.55
2022-09-03T07:47:00.976Z,6.28
2022-09-03T07:47:34.538Z,4.40
2022-09-03T07:48:06.356Z,3.38
2022-09-03T07:48:38.311Z,4.28
2022-09-03T07:49:11.313Z,4.25
2022-09-03T07:49:43.035Z,4.05
2022-09-03T07:50:16.390Z,5.13
2022-09-03T07:50:48.778Z,3.72
2022-09-03T07:51:25.465Z,3.50
2022-09-03T07:51:57.292Z,3.83
2022-09-03T07:52:29.062Z,3.67
2022-09-03T07:53:00.935Z,4.07
2022-09-03T07:53:33.509Z,3.33
2022-09-03T07:54:09.972Z,5.07
2022-09-03T07:54:41.863Z,4.55
2022-09-03T07:55:14.634Z,3.83
2022-09-03T07:55:48.007Z,3.78
2022-09-03T07:56:20.085Z,4.75
2022-09-03T07:56:51.866Z,4.30
2022-09-03T07:57:23.598Z,5.25
2022-09-03T07:57:57.119Z,3.88
2022-09-03T07:58:30.650Z,3.72
2022-09-03T07:59:03.850Z,4.20
2022-09-03T07:59:35.655Z,4.57
2022-09-03T08:00:08.926Z,4.43
2022-09-03T08:00:43.762Z,4.00
2022-09-03T08:01:20.323Z,3.22
2022-09-03T08:01:52.138Z,3.03
2022-09-03T08:02:23.889Z,3.60